Time;durP1;ratioP1;P1;durP2;ratioP2;P2;SDS_P1;SDS_P2;PMS_P1;PMS_P2;Temp;Humidity;BMP_temperature;BMP_pressure;BME280_temperature;BME280_humidity;BME280_pressure;Samples;Min_cycle;Max_cycle;Signal;HPM_P1;HPM_P2
2022/02/22 01:36:22;;;;;;;33.05;5.70;;;3.90;99.90;;;;;;5026152;28;20088;-81
2022/02/22 06:16:24;;;;;;;33.37;5.73;;;2.70;99.90;;;;;;4977196;28;20076;-81
2022/02/22 06:23:26;;;;;;;30.02;5.10;;;2.60;99.90;;;;;;4979291;28;20554;-81
2022/02/22 06:26:44;;;;;;;30.45;5.55;;;2.50;99.90;;;;;;4975796;28;20042;-81
2022/02/22 06:29:41;;;;;;;39.50;6.10;;;2.60;99.90;;;;;;4980840;28;20694;-81
2022/02/22 06:32:40;;;;;;;24.70;5.30;;;2.50;99.90;;;;;;4958819;28;20031;-81
2022/02/22 06:35:52;;;;;;;28.95;5.25;;;2.60;99.90;;;;;;4978615;28;20074;-80
2022/02/22 06:39:02;;;;;;;28.38;5.32;;;2.60;99.90;;;;;;4952253;28;20094;-80
2022/02/22 06:42:03;;;;;;;35.92;5.40;;;2.60;99.90;;;;;;4976534;28;20042;-81
2022/02/22 06:44:54;;;;;;;26.30;5.10;;;2.60;99.90;;;;;;4956202;28;20038;-80
2022/02/22 06:48:01;;;;;;;36.03;5.88;;;2.70;99.90;;;;;;4961810;28;20123;-81
2022/02/22 06:50:37;;;;;;;38.78;6.18;;;2.70;99.90;;;;;;4959641;28;20035;-81
2022/02/22 06:54:00;;;;;;;36.15;5.72;;;2.80;99.90;;;;;;4956968;28;20019;-81
2022/02/22 06:56:43;;;;;;;28.75;5.35;;;2.80;99.90;;;;;;4952265;28;20043;-81
2022/02/22 06:59:33;;;;;;;31.70;6.20;;;2.90;99.90;;;;;;4960941;28;20034;-81
2022/02/22 07:02:28;;;;;;;29.90;5.15;;;2.90;99.90;;;;;;4957636;28;20203;-81
2022/02/22 07:05:40;;;;;;;47.88;6.80;;;2.90;99.90;;;;;;4958676;28;20062;-81
2022/02/22 07:08:22;;;;;;;36.45;6.10;;;2.90;99.90;;;;;;4975303;28;20046;-81
2022/02/22 07:11:13;;;;;;;32.33;5.75;;;3.00;99.90;;;;;;4991401;28;20057;-81
2022/02/22 07:14:07;;;;;;;33.95;5.95;;;3.00;99.90;;;;;;5000815;28;20033;-82
2022/02/22 07:16:47;;;;;;;35.38;5.82;;;3.00;99.90;;;;;;5006220;28;20081;-81
2022/02/22 07:19:45;;;;;;;38.03;7.30;;;3.10;99.90;;;;;;4994806;28;20019;-81
2022/02/22 07:22:48;;;;;;;33.40;5.30;;;3.20;99.90;;;;;;4987702;28;20050;-81
2022/02/22 07:25:22;;;;;;;31.55;5.53;;;3.30;99.90;;;;;;4982099;28;20027;-80
2022/02/22 07:28:18;;;;;;;30.40;6.00;;;3.40;99.90;;;;;;4986085;28;20049;-81
2022/02/22 07:31:29;;;;;;;44.58;7.05;;;3.40;99.90;;;;;;5004570;28;20026;-81
2022/02/22 07:48:40;;;;;;;38.08;6.25;;;3.70;99.90;;;;;;4887391;29;20045;-81
2022/02/22 08:23:02;;;;;;;25.92;5.43;;;4.50;99.90;;;;;;4713742;30;20076;-82
2022/02/22 11:04:58;;;;;;;28.50;5.47;;;7.90;99.90;;;;;;4851615;29;20097;-82
2022/02/22 11:28:53;;;;;;;29.00;5.88;;;7.90;99.90;;;;;;4777847;30;20327;-81
2022/02/22 11:39:46;;;;;;;21.90;5.53;;;7.80;99.90;;;;;;4764941;30;20164;-82
2022/02/22 11:42:38;;;;;;;25.48;6.20;;;7.80;99.90;;;;;;4770615;30;20167;-81
2022/02/22 12:11:11;;;;;;;30.17;6.78;;;7.50;99.90;;;;;;4919403;29;20104;-82
2022/02/22 12:18:05;;;;;;;30.80;8.23;;;7.40;99.90;;;;;;4882507;29;20032;-82
2022/02/22 12:28:51;;;;;;;33.85;9.25;;;7.50;99.90;;;;;;4981771;28;20038;-82
2022/02/22 12:39:27;;;;;;;;;;;;;;;;;;;;;
2022/02/22 12:46:14;;;;;;;;;;;;;;;;;;;;;
2022/02/22 12:48:56;;;;;;;33.65;10.75;;;7.70;99.90;;;;;;4965894;28;20465;-82
2022/02/22 12:51:25;;;;;;;32.10;10.05;;;7.80;99.90;;;;;;4971142;28;20053;-80
2022/02/22 12:53:59;;;;;;;37.22;11.05;;;7.80;99.90;;;;;;4982698;28;20092;-81
2022/02/22 12:56:40;;;;;;;29.13;10.60;;;7.90;99.90;;;;;;4980120;28;20102;-81
2022/02/22 12:59:24;;;;;;;30.40;10.52;;;7.90;99.90;;;;;;4979203;28;20483;-80
2022/02/22 13:02:11;;;;;;;32.63;11.63;;;7.80;99.90;;;;;;4999736;28;20105;-80
2022/02/22 13:05:20;;;;;;;30.38;10.23;;;7.90;99.90;;;;;;5002809;28;20110;-80
2022/02/22 13:08:06;;;;;;;31.88;10.85;;;7.90;99.90;;;;;;4998206;28;20958;-80
2022/02/22 13:11:36;;;;;;;31.03;10.93;;;7.90;99.90;;;;;;4986332;28;20038;-80
2022/02/22 13:14:23;;;;;;;28.58;10.73;;;7.90;99.90;;;;;;4988155;28;20042;-81
2022/02/22 13:17:15;;;;;;;30.60;11.63;;;7.90;99.90;;;;;;4995119;28;20026;-81
2022/02/22 13:20:24;;;;;;;34.25;11.07;;;8.00;99.90;;;;;;4990186;28;20085;-81
2022/02/22 13:23:13;;;;;;;34.38;12.30;;;8.00;99.90;;;;;;4997858;28;20037;-81
2022/02/22 13:26:25;;;;;;;32.78;11.70;;;8.00;99.90;;;;;;4996789;28;20030;-81
2022/02/22 13:29:26;;;;;;;37.22;11.60;;;8.00;99.90;;;;;;4992889;28;20055;-81
2022/02/22 13:32:20;;;;;;;33.72;13.07;;;8.00;99.90;;;;;;4996923;28;20038;-81
2022/02/22 13:35:30;;;;;;;34.92;11.23;;;8.00;99.90;;;;;;4996717;28;20125;-81
2022/02/22 13:38:19;;;;;;;33.17;12.55;;;8.10;99.90;;;;;;4973358;28;20043;-81
2022/02/22 13:41:20;;;;;;;34.20;11.48;;;8.10;99.90;;;;;;4995223;28;20129;-81
2022/02/22 13:44:28;;;;;;;34.83;12.25;;;8.10;99.90;;;;;;4998789;28;20045;-82
2022/02/22 13:47:13;;;;;;;31.10;11.80;;;8.10;99.90;;;;;;5123758;27;20395;-37
2022/02/22 13:49:48;;;;;;;27.77;11.85;;;8.10;99.90;;;;;;5139356;28;20101;-37
2022/02/22 13:52:17;;;;;;;37.20;12.38;;;8.20;99.90;;;;;;5123197;28;20575;-39
2022/02/22 13:54:48;;;;;;;31.10;12.38;;;8.20;99.90;;;;;;5122451;28;20066;-37
2022/02/22 13:57:15;;;;;;;32.70;12.77;;;8.20;99.90;;;;;;5142083;27;20031;-37
2022/02/22 13:59:43;;;;;;;32.30;12.57;;;8.20;99.90;;;;;;5134722;27;20049;-37
2022/02/22 14:02:22;;;;;;;36.45;12.95;;;8.20;99.90;;;;;;5109212;28;20017;-37
2022/02/22 14:04:48;;;;;;;32.15;12.60;;;8.20;99.90;;;;;;5128345;28;20066;-37
2022/02/22 14:07:18;;;;;;;34.15;11.82;;;8.20;99.90;;;;;;5125809;28;20028;-36
2022/02/22 14:09:44;;;;;;;30.50;12.15;;;8.20;99.90;;;;;;5133639;28;20040;-37
2022/02/22 14:12:09;;;;;;;35.70;13.35;;;8.20;99.90;;;;;;5119208;28;20032;-39
2022/02/22 14:14:35;;;;;;;35.20;13.50;;;8.30;99.90;;;;;;5118458;28;20107;-37
2022/02/22 14:17:01;;;;;;;32.53;12.18;;;8.30;99.90;;;;;;5123831;27;20042;-37
2022/02/22 14:19:27;;;;;;;33.47;13.57;;;8.40;99.90;;;;;;5110515;28;20079;-37
2022/02/22 14:21:52;;;;;;;34.65;12.98;;;8.40;99.90;;;;;;5134608;28;20106;-37
2022/02/22 14:24:21;;;;;;;32.55;12.25;;;8.40;99.90;;;;;;5126953;28;20017;-37
2022/02/22 14:26:46;;;;;;;30.63;13.15;;;8.40;99.90;;;;;;5128357;28;20104;-37
2022/02/22 14:29:12;;;;;;;35.72;13.80;;;8.40;99.90;;;;;;5127292;28;20027;-38
2022/02/22 14:31:38;;;;;;;31.50;12.38;;;8.40;99.90;;;;;;5138388;27;20028;-37
2022/02/22 14:34:06;;;;;;;33.25;12.85;;;8.50;99.90;;;;;;5114267;27;20066;-37
2022/02/22 14:36:34;;;;;;;36.92;13.23;;;8.40;99.90;;;;;;5125018;28;20035;-37
2022/02/22 14:39:04;;;;;;;38.92;12.25;;;8.50;99.90;;;;;;5118106;28;20032;-37
2022/02/22 14:41:30;;;;;;;25.50;11.13;;;8.40;99.90;;;;;;5110913;28;20120;-42
2022/02/22 14:43:58;;;;;;;37.75;13.60;;;8.50;99.90;;;;;;5114272;28;20030;-38
2022/02/22 14:46:24;;;;;;;33.00;12.18;;;8.50;99.90;;;;;;5122701;28;20047;-37
2022/02/22 14:48:49;;;;;;;36.72;11.82;;;8.60;99.90;;;;;;5122944;28;20053;-37
2022/02/22 14:51:15;;;;;;;39.15;11.85;;;8.60;99.90;;;;;;5117782;28;20036;-37
2022/02/22 14:53:42;;;;;;;29.80;11.35;;;8.60;99.90;;;;;;5113154;28;20030;-37
2022/02/22 14:56:13;;;;;;;30.25;11.23;;;8.60;99.90;;;;;;5119872;28;20019;-36
2022/02/22 14:58:39;;;;;;;34.38;11.27;;;8.70;99.90;;;;;;5101960;28;20070;-37
2022/02/22 15:01:06;;;;;;;36.35;11.30;;;8.70;99.90;;;;;;5102905;28;20111;-36
2022/02/22 15:03:33;;;;;;;28.27;10.00;;;8.80;99.90;;;;;;5107672;28;20092;-37
2022/02/22 15:06:01;;;;;;;26.70;9.50;;;8.80;99.90;;;;;;5097345;28;20052;-39
2022/02/22 15:08:27;;;;;;;27.10;9.85;;;8.80;99.90;;;;;;5093760;28;20115;-37
2022/02/22 15:10:53;;;;;;;25.88;10.18;;;8.80;99.90;;;;;;5104784;28;20521;-36
2022/02/22 15:13:19;;;;;;;26.92;10.45;;;8.80;99.90;;;;;;5103889;28;20032;-37
2022/02/22 15:15:45;;;;;;;31.27;10.23;;;8.90;99.90;;;;;;5105593;28;20036;-36
2022/02/22 15:18:11;;;;;;;28.30;9.48;;;8.90;99.90;;;;;;5095197;28;20484;-37
2022/02/22 15:20:43;;;;;;;24.90;8.85;;;8.80;99.90;;;;;;5098370;28;20537;-37
2022/02/22 15:23:13;;;;;;;32.75;9.00;;;8.90;99.90;;;;;;5109153;28;20415;-38
2022/02/22 15:25:38;;;;;;;24.92;8.77;;;8.90;99.90;;;;;;5111091;28;20053;-37
2022/02/22 15:28:04;;;;;;;27.52;9.07;;;9.00;99.90;;;;;;5106599;28;20099;-37
2022/02/22 15:30:30;;;;;;;28.30;9.45;;;8.90;99.90;;;;;;5092305;28;20036;-37
2022/02/22 15:32:56;;;;;;;25.38;8.52;;;8.90;99.90;;;;;;5099500;28;20091;-37
2022/02/22 15:35:21;;;;;;;28.83;8.07;;;8.90;99.90;;;;;;5098048;28;20021;-37
2022/02/22 15:37:47;;;;;;;23.65;6.63;;;9.00;99.90;;;;;;5097284;28;20036;-37
2022/02/22 15:40:13;;;;;;;27.98;7.55;;;8.90;99.90;;;;;;5095118;28;20411;-37
2022/02/22 15:42:40;;;;;;;27.63;6.60;;;8.90;99.90;;;;;;5098966;28;20507;-37
2022/02/22 15:45:07;;;;;;;26.25;6.68;;;9.00;99.90;;;;;;5093693;28;20045;-36
2022/02/22 15:47:33;;;;;;;25.38;6.57;;;9.00;99.90;;;;;;5105257;28;21262;-37
2022/02/22 15:50:00;;;;;;;27.92;6.10;;;9.00;99.90;;;;;;5103125;28;20038;-36
2022/02/22 15:52:25;;;;;;;23.23;6.35;;;9.10;99.90;;;;;;5096833;28;20024;-37
2022/02/22 15:54:51;;;;;;;26.70;6.65;;;9.00;99.90;;;;;;5099782;28;20027;-37
2022/02/22 15:57:17;;;;;;;27.13;5.68;;;9.00;99.90;;;;;;5102239;28;20032;-37
2022/02/22 15:59:43;;;;;;;22.13;6.10;;;9.00;99.90;;;;;;5097472;28;20028;-37
2022/02/22 16:02:10;;;;;;;30.08;6.60;;;9.00;99.90;;;;;;5097960;28;20023;-37
2022/02/22 16:04:36;;;;;;;28.35;6.22;;;8.90;99.90;;;;;;5096133;28;20035;-37
2022/02/22 16:07:01;;;;;;;26.77;5.35;;;9.00;99.90;;;;;;5103840;28;20032;-37
2022/02/22 16:09:28;;;;;;;31.20;6.05;;;9.00;99.90;;;;;;5093724;28;20017;-38
2022/02/22 16:12:05;;;;;;;28.38;6.65;;;9.00;99.90;;;;;;5093119;28;20024;-38
2022/02/22 16:14:31;;;;;;;29.30;7.13;;;9.00;99.90;;;;;;5101307;28;20050;-40
2022/02/22 16:16:59;;;;;;;28.90;7.20;;;9.00;99.90;;;;;;5101895;28;20124;-40
2022/02/22 16:19:25;;;;;;;32.83;7.70;;;9.00;99.90;;;;;;5099007;28;20039;-37
2022/02/22 16:21:51;;;;;;;25.92;6.88;;;9.00;99.90;;;;;;5105272;28;20022;-42
2022/02/22 16:24:45;;;;;;;32.90;7.43;;;9.00;99.90;;;;;;5102175;28;20028;-37
2022/02/22 16:27:10;;;;;;;37.97;7.20;;;9.00;99.90;;;;;;5097756;28;20362;-38
2022/02/22 16:29:36;;;;;;;36.92;8.80;;;9.00;99.90;;;;;;5110257;28;20024;-37
2022/02/22 16:32:05;;;;;;;39.92;8.00;;;9.00;99.90;;;;;;5094853;28;20114;-38
2022/02/22 16:34:32;;;;;;;33.00;7.38;;;9.00;99.90;;;;;;5090491;28;20030;-37
2022/02/22 16:36:58;;;;;;;31.88;7.93;;;9.00;99.90;;;;;;5099543;28;20162;-37
2022/02/22 16:39:26;;;;;;;30.20;7.18;;;9.00;99.90;;;;;;5099539;28;20024;-37
2022/02/22 16:41:52;;;;;;;35.40;8.13;;;9.00;99.90;;;;;;5101722;28;20119;-37
2022/02/22 16:44:17;;;;;;;35.40;9.15;;;8.90;99.90;;;;;;5106902;28;20423;-37
2022/02/22 16:46:43;;;;;;;35.05;7.85;;;8.90;99.90;;;;;;5102855;28;20044;-37
2022/02/22 16:49:10;;;;;;;37.22;6.82;;;8.90;99.90;;;;;;5099795;28;20016;-37
2022/02/22 16:51:36;;;;;;;34.60;6.50;;;8.90;99.90;;;;;;5097656;28;20145;-37
2022/02/22 16:54:02;;;;;;;35.45;6.97;;;8.80;99.90;;;;;;5101091;28;20038;-38
2022/02/22 16:56:28;;;;;;;25.80;6.03;;;8.80;99.90;;;;;;5097460;28;20083;-38
2022/02/22 16:58:53;;;;;;;32.63;6.65;;;8.80;99.90;;;;;;5097569;28;20020;-37
2022/02/22 17:01:19;;;;;;;32.20;7.18;;;8.80;99.90;;;;;;5102692;28;20054;-38
2022/02/22 17:03:45;;;;;;;39.05;6.70;;;8.80;99.90;;;;;;5098926;28;20469;-38
2022/02/22 17:06:10;;;;;;;29.80;5.97;;;8.80;99.90;;;;;;5102556;28;20122;-38
2022/02/22 17:08:36;;;;;;;26.65;5.60;;;8.70;99.90;;;;;;5103570;28;20031;-38
2022/02/22 17:11:02;;;;;;;28.95;6.50;;;8.70;99.90;;;;;;5105365;28;20111;-38
2022/02/22 17:13:28;;;;;;;31.17;7.22;;;8.70;99.90;;;;;;5107897;28;20036;-38
2022/02/22 17:15:54;;;;;;;24.15;5.18;;;8.70;99.90;;;;;;5108512;28;20023;-38
2022/02/22 17:18:20;;;;;;;25.25;5.40;;;8.70;99.90;;;;;;5119442;28;20023;-38
2022/02/22 17:20:47;;;;;;;21.33;4.50;;;8.70;99.90;;;;;;5108967;28;20028;-38
2022/02/22 17:23:13;;;;;;;26.27;4.97;;;8.60;99.90;;;;;;5111323;28;20043;-38
2022/02/22 17:25:39;;;;;;;25.90;5.20;;;8.60;99.90;;;;;;5110293;28;20035;-38
2022/02/22 17:28:05;;;;;;;19.75;4.88;;;8.50;99.90;;;;;;5107392;28;20063;-38
2022/02/22 17:30:31;;;;;;;23.25;4.13;;;8.40;99.90;;;;;;5103180;28;20095;-38
2022/02/22 17:32:57;;;;;;;23.50;4.97;;;8.30;99.90;;;;;;5103635;28;20044;-38
2022/02/22 17:35:22;;;;;;;21.45;3.80;;;8.20;99.90;;;;;;5100200;28;20028;-38
2022/02/22 17:37:48;;;;;;;21.83;3.55;;;8.20;99.90;;;;;;5092809;28;20460;-39
2022/02/22 17:41:01;;;;;;;21.85;4.28;;;8.10;99.90;;;;;;5095421;28;20135;-39
2022/02/22 17:43:30;;;;;;;27.98;5.57;;;8.10;99.90;;;;;;5098200;28;20509;-39
2022/02/22 17:45:56;;;;;;;26.13;4.32;;;8.00;99.90;;;;;;5089508;28;20048;-39
2022/02/22 17:48:21;;;;;;;27.60;5.10;;;8.00;99.90;;;;;;5091941;28;20117;-41
2022/02/22 17:50:47;;;;;;;19.52;4.07;;;7.80;99.90;;;;;;5097512;28;20024;-39
2022/02/22 17:53:14;;;;;;;23.17;4.15;;;7.70;99.90;;;;;;5092741;28;20035;-40
2022/02/22 17:55:41;;;;;;;21.77;3.30;;;7.70;99.90;;;;;;5097127;28;20029;-39
2022/02/22 17:58:07;;;;;;;23.00;3.75;;;7.60;99.90;;;;;;5093851;28;20099;-38
2022/02/22 18:00:35;;;;;;;22.13;3.90;;;7.60;99.90;;;;;;5092281;28;20100;-39
2022/02/22 18:03:00;;;;;;;16.83;3.58;;;7.50;99.90;;;;;;5092673;28;20092;-39
2022/02/22 18:05:26;;;;;;;25.20;3.55;;;7.50;99.90;;;;;;5095027;28;20083;-39
2022/02/22 18:07:52;;;;;;;17.65;4.18;;;7.40;99.90;;;;;;5100451;28;20052;-39
2022/02/22 18:10:22;;;;;;;22.65;4.07;;;7.40;99.90;;;;;;5101761;28;20092;-39
2022/02/22 18:12:50;;;;;;;19.77;4.03;;;7.40;99.90;;;;;;5100226;28;20046;-39
2022/02/22 18:15:25;;;;;;;20.13;3.88;;;7.40;99.90;;;;;;5097389;28;20036;-38
2022/02/22 18:17:51;;;;;;;21.45;3.58;;;7.30;99.90;;;;;;5099508;28;20415;-39
2022/02/22 18:20:18;;;;;;;23.17;5.00;;;7.30;99.90;;;;;;5096278;28;20372;-38
2022/02/22 18:22:45;;;;;;;20.70;4.05;;;7.30;99.90;;;;;;5091578;28;20024;-39
2022/02/22 18:25:11;;;;;;;26.50;3.65;;;7.30;99.90;;;;;;5098852;28;20055;-39
2022/02/22 18:27:37;;;;;;;21.63;4.88;;;7.30;99.90;;;;;;5097241;28;20047;-39
2022/02/22 18:30:04;;;;;;;28.35;4.57;;;7.20;99.90;;;;;;5097937;28;20379;-39
2022/02/22 18:32:31;;;;;;;24.70;4.10;;;7.10;99.90;;;;;;5087566;28;20123;-38
2022/02/22 18:34:57;;;;;;;27.95;3.97;;;7.10;99.90;;;;;;5103662;28;20028;-39
2022/02/22 18:37:26;;;;;;;21.65;4.50;;;7.00;99.90;;;;;;5107541;28;20032;-38
2022/02/22 18:39:52;;;;;;;26.10;4.72;;;6.90;99.90;;;;;;5097216;28;20391;-38
2022/02/22 18:42:18;;;;;;;21.90;3.72;;;6.80;99.90;;;;;;5107392;28;20024;-38
2022/02/22 18:44:44;;;;;;;29.23;4.65;;;6.70;99.90;;;;;;5097856;28;20417;-38
2022/02/22 18:47:10;;;;;;;24.08;4.72;;;6.60;99.90;;;;;;5093211;28;20055;-38
2022/02/22 18:49:36;;;;;;;20.95;3.38;;;6.50;99.90;;;;;;5107656;28;20040;-38
2022/02/22 18:52:02;;;;;;;24.65;4.50;;;6.40;99.90;;;;;;5104264;28;20060;-38
2022/02/22 18:54:28;;;;;;;28.63;4.57;;;6.40;99.90;;;;;;5100454;28;20056;-39
2022/02/22 18:56:54;;;;;;;24.20;4.32;;;6.40;99.90;;;;;;5100618;28;20089;-40
2022/02/22 18:59:21;;;;;;;31.83;5.43;;;6.30;99.90;;;;;;5099275;28;20112;-38
2022/02/22 19:01:46;;;;;;;28.95;4.43;;;6.20;99.90;;;;;;5094752;28;20074;-39
2022/02/22 19:04:12;;;;;;;21.63;4.43;;;6.20;99.90;;;;;;5102455;28;20024;-39
2022/02/22 19:06:39;;;;;;;29.35;4.60;;;6.10;99.90;;;;;;5103894;28;20047;-38
2022/02/22 19:09:06;;;;;;;24.10;4.30;;;6.00;99.90;;;;;;5104279;28;20138;-38
2022/02/22 19:11:32;;;;;;;23.48;5.30;;;6.00;99.90;;;;;;5101305;28;20443;-38
2022/02/22 19:13:59;;;;;;;19.88;4.55;;;6.00;99.90;;;;;;5100734;28;20051;-39
2022/02/22 19:16:25;;;;;;;27.95;5.03;;;5.90;99.90;;;;;;5103574;28;20040;-39
2022/02/22 19:18:53;;;;;;;25.77;5.10;;;5.90;99.90;;;;;;5100636;28;20050;-38
2022/02/22 19:21:18;;;;;;;29.27;4.32;;;5.90;99.90;;;;;;5108797;28;20029;-42
2022/02/22 19:23:44;;;;;;;24.80;3.95;;;5.90;99.90;;;;;;5098832;28;20032;-38
2022/02/22 19:26:10;;;;;;;22.58;3.55;;;5.80;99.90;;;;;;5102899;28;20063;-39
2022/02/22 19:28:36;;;;;;;25.98;4.88;;;5.80;99.90;;;;;;5109281;28;20058;-38
2022/02/22 19:31:03;;;;;;;29.33;4.70;;;5.70;99.90;;;;;;5102218;28;20069;-39
2022/02/22 19:33:29;;;;;;;20.48;3.95;;;5.70;99.90;;;;;;5103354;28;20046;-39
2022/02/22 19:35:55;;;;;;;25.33;4.75;;;5.60;99.90;;;;;;5109520;28;20020;-39
2022/02/22 19:38:23;;;;;;;26.02;4.40;;;5.70;99.90;;;;;;5098221;28;20048;-39
2022/02/22 19:40:49;;;;;;;31.00;4.65;;;5.60;99.90;;;;;;5096985;28;20086;-43
2022/02/22 19:43:16;;;;;;;23.92;4.63;;;5.70;99.90;;;;;;5091692;28;20024;-38
2022/02/22 19:45:42;;;;;;;22.40;4.07;;;5.70;99.90;;;;;;5103168;28;20051;-38
2022/02/22 19:48:07;;;;;;;21.65;4.55;;;5.70;99.90;;;;;;5107895;28;20062;-38
2022/02/22 19:50:33;;;;;;;20.98;4.15;;;5.60;99.90;;;;;;5106057;28;20085;-40
2022/02/22 19:52:59;;;;;;;31.70;4.10;;;5.50;99.90;;;;;;5104709;28;20047;-38
2022/02/22 19:55:25;;;;;;;22.65;5.05;;;5.50;99.90;;;;;;5114849;28;20016;-38
2022/02/22 19:57:51;;;;;;;22.27;4.63;;;5.50;99.90;;;;;;5103393;28;20073;-38
2022/02/22 20:00:21;;;;;;;22.90;4.07;;;5.50;99.90;;;;;;5101262;28;20031;-38
2022/02/22 20:02:47;;;;;;;32.13;5.38;;;5.40;99.90;;;;;;5099640;28;20058;-38
2022/02/22 20:05:13;;;;;;;21.40;4.00;;;5.40;99.90;;;;;;5094349;28;20016;-38
2022/02/22 20:07:39;;;;;;;24.27;5.18;;;5.40;99.90;;;;;;5101518;28;20074;-38
2022/02/22 20:10:06;;;;;;;27.92;5.07;;;5.40;99.90;;;;;;5102305;28;20597;-38
2022/02/22 20:12:32;;;;;;;28.58;4.85;;;5.40;99.90;;;;;;5102372;28;20025;-38
2022/02/22 20:14:58;;;;;;;23.58;4.30;;;5.40;99.90;;;;;;5116269;28;20114;-38
2022/02/22 20:17:23;;;;;;;26.15;4.70;;;5.40;99.90;;;;;;5094353;28;20093;-39
2022/02/22 20:19:49;;;;;;;24.27;4.93;;;5.40;99.90;;;;;;5095760;28;20028;-38
2022/02/22 20:22:16;;;;;;;25.05;4.55;;;5.40;99.90;;;;;;5104657;28;20028;-38
2022/02/22 20:24:42;;;;;;;25.42;4.43;;;5.40;99.90;;;;;;5093013;28;20049;-39
2022/02/22 20:27:09;;;;;;;22.13;4.85;;;5.30;99.90;;;;;;5096701;28;20461;-38
2022/02/22 20:29:35;;;;;;;32.58;5.68;;;5.30;99.90;;;;;;5098698;28;20070;-38
2022/02/22 20:32:02;;;;;;;28.80;4.55;;;5.30;99.90;;;;;;5097042;28;20081;-38
2022/02/22 20:34:28;;;;;;;25.65;5.00;;;5.40;99.90;;;;;;5106412;28;20487;-38
2022/02/22 20:36:54;;;;;;;25.02;5.03;;;5.40;99.90;;;;;;5103881;28;20020;-38
2022/02/22 20:39:20;;;;;;;24.17;4.32;;;5.30;99.90;;;;;;5105117;28;20031;-38
2022/02/22 20:41:46;;;;;;;25.67;4.57;;;5.30;99.90;;;;;;5108095;28;20035;-38
2022/02/22 20:44:12;;;;;;;29.55;5.20;;;5.30;99.90;;;;;;5103669;28;20479;-38
2022/02/22 20:46:39;;;;;;;29.40;5.05;;;5.20;99.90;;;;;;5111615;28;20115;-38
2022/02/22 20:49:06;;;;;;;29.83;4.72;;;5.20;99.90;;;;;;5097037;28;20394;-38
2022/02/22 20:51:32;;;;;;;24.90;4.57;;;5.10;99.90;;;;;;5097472;28;20025;-38
2022/02/22 20:53:59;;;;;;;24.90;5.13;;;5.00;99.90;;;;;;5106558;28;21254;-38
2022/02/22 20:56:24;;;;;;;30.40;5.93;;;5.00;99.90;;;;;;5100935;28;20050;-38
2022/02/22 20:58:51;;;;;;;24.85;4.55;;;5.00;99.90;;;;;;5105254;28;20024;-38
2022/02/22 21:01:18;;;;;;;24.90;4.05;;;4.90;99.90;;;;;;5108373;28;20044;-38
2022/02/22 21:03:43;;;;;;;26.38;4.63;;;4.90;99.90;;;;;;5097934;28;20036;-40
2022/02/22 21:06:09;;;;;;;25.27;4.85;;;4.90;99.90;;;;;;5100384;28;20043;-38
2022/02/22 21:08:35;;;;;;;26.85;4.30;;;4.90;99.90;;;;;;5105932;28;20042;-38
2022/02/22 21:11:01;;;;;;;24.00;4.25;;;4.90;99.90;;;;;;5106539;28;20027;-38
2022/02/22 21:13:26;;;;;;;29.73;4.55;;;4.90;99.90;;;;;;5104636;28;20086;-38
2022/02/22 21:15:52;;;;;;;25.35;4.53;;;4.90;99.90;;;;;;5103554;28;20091;-38
2022/02/22 21:18:18;;;;;;;30.20;4.60;;;4.80;99.90;;;;;;5103400;28;20028;-38
2022/02/22 21:20:47;;;;;;;25.40;4.65;;;4.80;99.90;;;;;;5101964;28;20043;-38
2022/02/22 21:23:13;;;;;;;26.77;4.38;;;4.90;99.90;;;;;;5106275;28;20459;-38
2022/02/22 21:25:38;;;;;;;24.90;4.50;;;4.90;99.90;;;;;;5101205;28;20138;-42
2022/02/22 21:28:07;;;;;;;27.65;4.55;;;4.90;99.90;;;;;;5103871;28;20078;-38
2022/02/22 21:30:33;;;;;;;32.58;4.85;;;4.90;99.90;;;;;;5097247;28;20115;-38
2022/02/22 21:32:59;;;;;;;21.75;4.63;;;4.90;99.90;;;;;;5101810;28;20372;-39
2022/02/22 21:35:25;;;;;;;25.00;4.07;;;4.90;99.90;;;;;;5100938;28;20032;-40
2022/02/22 21:37:51;;;;;;;29.25;4.78;;;4.90;99.90;;;;;;5099928;28;20454;-40
2022/02/22 21:40:17;;;;;;;28.58;4.63;;;4.90;99.90;;;;;;5099185;28;20041;-44
2022/02/22 21:42:44;;;;;;;25.45;4.32;;;5.00;99.90;;;;;;5102158;28;20819;-39
2022/02/22 21:45:10;;;;;;;25.65;4.30;;;5.00;99.90;;;;;;5104759;28;20039;-39
2022/02/22 21:47:37;;;;;;;18.85;4.10;;;5.10;99.90;;;;;;5095518;28;20053;-40
2022/02/22 21:50:04;;;;;;;22.42;3.92;;;5.00;99.90;;;;;;5098000;28;20043;-43
2022/02/22 21:52:29;;;;;;;24.98;4.03;;;5.00;99.90;;;;;;5097895;28;20038;-39
2022/02/22 21:54:55;;;;;;;24.83;3.85;;;5.10;99.90;;;;;;5106098;28;20039;-39
2022/02/22 21:57:21;;;;;;;19.67;3.35;;;5.10;99.90;;;;;;5098411;28;20021;-39
2022/02/22 21:59:47;;;;;;;19.05;4.03;;;5.10;99.90;;;;;;5098426;28;20022;-38
2022/02/22 22:02:12;;;;;;;26.17;4.25;;;5.10;99.90;;;;;;5096897;28;20031;-39
2022/02/22 22:04:38;;;;;;;29.83;4.07;;;5.10;99.90;;;;;;5101252;28;20668;-38
2022/02/22 22:07:04;;;;;;;20.98;4.15;;;5.10;99.90;;;;;;5097758;28;20487;-39
2022/02/22 22:09:30;;;;;;;21.95;3.33;;;5.10;99.90;;;;;;5103633;28;20039;-38
2022/02/22 22:11:56;;;;;;;20.33;3.90;;;5.10;99.90;;;;;;5099914;28;20100;-42
2022/02/22 22:14:22;;;;;;;18.45;3.83;;;5.10;99.90;;;;;;5100662;28;20520;-41
2022/02/22 22:16:47;;;;;;;19.80;3.92;;;5.10;99.90;;;;;;5108158;27;20027;-38
2022/02/22 22:19:13;;;;;;;17.50;3.45;;;5.00;99.90;;;;;;5098482;28;20028;-38
2022/02/22 22:21:40;;;;;;;21.83;3.63;;;5.10;99.90;;;;;;5096979;28;20043;-40
2022/02/22 22:24:06;;;;;;;32.80;4.35;;;5.10;99.90;;;;;;5102971;28;20046;-38
2022/02/22 22:26:32;;;;;;;30.33;3.65;;;5.20;99.90;;;;;;5097509;28;20487;-38
2022/02/22 22:28:58;;;;;;;21.80;3.55;;;5.20;99.90;;;;;;5100809;28;20044;-38
2022/02/22 22:31:23;;;;;;;21.52;4.25;;;5.20;99.90;;;;;;5102064;28;20028;-38
2022/02/22 22:33:50;;;;;;;22.48;4.38;;;5.20;99.90;;;;;;5102729;28;20025;-39
2022/02/22 22:36:16;;;;;;;17.90;3.47;;;5.10;99.90;;;;;;5111179;28;20371;-40
2022/02/22 22:38:43;;;;;;;22.40;3.95;;;5.20;99.90;;;;;;5101451;28;20451;-41
2022/02/22 22:41:08;;;;;;;18.50;3.13;;;5.10;99.90;;;;;;5100240;28;20040;-38
2022/02/22 22:43:34;;;;;;;23.08;3.53;;;5.20;99.90;;;;;;5100383;28;20039;-38
2022/02/22 22:46:00;;;;;;;22.35;3.50;;;5.30;99.90;;;;;;5102543;28;20423;-42
2022/02/22 22:48:25;;;;;;;17.98;3.40;;;5.10;99.90;;;;;;5096281;28;21711;-39
2022/02/22 22:50:51;;;;;;;19.58;3.78;;;5.20;99.90;;;;;;5098736;28;20039;-38
2022/02/22 22:53:16;;;;;;;22.17;4.05;;;5.20;99.90;;;;;;5103377;28;20024;-39
2022/02/22 22:55:43;;;;;;;21.52;3.53;;;5.20;99.90;;;;;;5105181;28;20088;-38
2022/02/22 22:58:08;;;;;;;14.88;3.08;;;5.20;99.90;;;;;;5094707;28;20024;-38
2022/02/22 23:00:36;;;;;;;18.10;2.95;;;5.20;99.90;;;;;;5101221;28;20036;-39
2022/02/22 23:03:02;;;;;;;23.10;3.25;;;5.20;99.90;;;;;;5098421;28;20513;-38
2022/02/22 23:13:58;;;;;;;13.95;2.88;;;5.20;99.90;;;;;;5091692;28;20047;-43
2022/02/22 23:16:28;;;;;;;18.92;3.78;;;5.20;99.90;;;;;;5097437;28;20471;-38
2022/02/22 23:18:54;;;;;;;24.80;3.90;;;5.20;99.90;;;;;;5094783;28;20028;-38
2022/02/22 23:21:20;;;;;;;18.67;2.83;;;5.20;99.90;;;;;;5095508;28;20049;-38
2022/02/22 23:23:46;;;;;;;23.20;3.63;;;5.20;99.90;;;;;;5097607;28;20024;-38
2022/02/22 23:26:13;;;;;;;18.52;3.58;;;5.20;99.90;;;;;;5098093;28;20048;-38
2022/02/22 23:28:39;;;;;;;21.13;3.70;;;5.10;99.90;;;;;;5096276;28;20021;-39
2022/02/22 23:31:06;;;;;;;21.40;3.33;;;5.10;99.90;;;;;;5095875;28;20020;-38
2022/02/22 23:33:33;;;;;;;27.85;4.30;;;5.10;99.90;;;;;;5102357;28;20020;-38
2022/02/22 23:35:59;;;;;;;25.85;4.20;;;5.00;99.90;;;;;;5095366;28;20040;-39
2022/02/22 23:38:25;;;;;;;26.13;3.72;;;5.00;99.90;;;;;;5096114;28;20099;-38
2022/02/22 23:40:52;;;;;;;30.05;4.00;;;5.00;99.90;;;;;;5098935;28;20026;-38
2022/02/22 23:43:18;;;;;;;20.00;3.53;;;4.90;99.90;;;;;;5099322;28;20070;-38
2022/02/22 23:45:44;;;;;;;21.70;3.47;;;5.00;99.90;;;;;;5097372;28;20048;-38
2022/02/22 23:48:09;;;;;;;19.45;4.07;;;5.00;99.90;;;;;;5092336;28;20029;-39
2022/02/22 23:50:35;;;;;;;21.90;3.67;;;4.90;99.90;;;;;;5095213;28;20103;-38
2022/02/22 23:53:01;;;;;;;18.73;3.55;;;5.00;99.90;;;;;;5099883;28;20047;-38
2022/02/22 23:55:26;;;;;;;18.63;3.20;;;4.90;99.90;;;;;;5098268;28;20034;-38
2022/02/22 23:57:52;;;;;;;25.65;4.03;;;4.90;99.90;;;;;;5102160;28;20091;-38
